sensor_id;sensor_type;location;lat;lon;timestamp;P1;durP1;ratioP1;P2;durP2;ratioP2
76733;SDS011;65660;53.288;14.666;2023-05-13T00:03:51;6.40;;;5.57;;
76733;SDS011;65660;53.288;14.666;2023-05-13T00:08:52;6.53;;;5.70;;
76733;SDS011;65660;53.288;14.666;2023-05-13T00:13:52;6.47;;;5.88;;
76733;SDS011;65660;53.288;14.666;2023-05-13T00:18:53;8.38;;;5.60;;
76733;SDS011;65660;53.288;14.666;2023-05-13T00:23:54;8.73;;;6.85;;
76733;SDS011;65660;53.288;14.666;2023-05-13T00:28:54;9.60;;;5.55;;
76733;SDS011;65660;53.288;14.666;2023-05-13T00:33:55;7.45;;;5.70;;
76733;SDS011;65660;53.288;14.666;2023-05-13T00:38:55;8.57;;;5.50;;
76733;SDS011;65660;53.288;14.666;2023-05-13T00:43:56;6.27;;;5.23;;
76733;SDS011;65660;53.288;14.666;2023-05-13T00:48:56;7.63;;;5.60;;
76733;SDS011;65660;53.288;14.666;2023-05-13T00:53:58;7.05;;;5.63;;
76733;SDS011;65660;53.288;14.666;2023-05-13T00:58:58;6.57;;;5.90;;
76733;SDS011;65660;53.288;14.666;2023-05-13T01:14:44;8.10;;;5.97;;
76733;SDS011;65660;53.288;14.666;2023-05-13T01:20:03;8.07;;;5.80;;
76733;SDS011;65660;53.288;14.666;2023-05-13T01:25:04;9.00;;;6.03;;
76733;SDS011;65660;53.288;14.666;2023-05-13T01:30:05;8.00;;;5.80;;
76733;SDS011;65660;53.288;14.666;2023-05-13T01:35:07;10.40;;;5.90;;
76733;SDS011;65660;53.288;14.666;2023-05-13T01:40:08;9.57;;;6.27;;
76733;SDS011;65660;53.288;14.666;2023-05-13T01:45:09;7.70;;;5.90;;
76733;SDS011;65660;53.288;14.666;2023-05-13T01:50:10;10.90;;;6.73;;
76733;SDS011;65660;53.288;14.666;2023-05-13T01:55:10;8.37;;;6.13;;
76733;SDS011;65660;53.288;14.666;2023-05-13T02:00:11;9.03;;;6.07;;
76733;SDS011;65660;53.288;14.666;2023-05-13T02:05:12;8.23;;;6.30;;
76733;SDS011;65660;53.288;14.666;2023-05-13T02:10:12;8.10;;;6.47;;
76733;SDS011;65660;53.288;14.666;2023-05-13T02:15:13;9.47;;;6.47;;
76733;SDS011;65660;53.288;14.666;2023-05-13T02:20:13;11.17;;;6.53;;
76733;SDS011;65660;53.288;14.666;2023-05-13T02:25:14;8.90;;;6.47;;
76733;SDS011;65660;53.288;14.666;2023-05-13T02:30:14;9.07;;;6.40;;
76733;SDS011;65660;53.288;14.666;2023-05-13T02:35:15;8.13;;;6.23;;
76733;SDS011;65660;53.288;14.666;2023-05-13T02:40:15;7.80;;;6.07;;
76733;SDS011;65660;53.288;14.666;2023-05-13T02:45:16;7.47;;;6.30;;
76733;SDS011;65660;53.288;14.666;2023-05-13T02:50:16;10.63;;;6.60;;
76733;SDS011;65660;53.288;14.666;2023-05-13T02:55:16;6.80;;;6.10;;
76733;SDS011;65660;53.288;14.666;2023-05-13T03:00:17;7.83;;;6.23;;
76733;SDS011;65660;53.288;14.666;2023-05-13T03:05:18;9.93;;;6.60;;
76733;SDS011;65660;53.288;14.666;2023-05-13T03:10:18;8.37;;;6.50;;
76733;SDS011;65660;53.288;14.666;2023-05-13T03:15:19;8.20;;;6.67;;
76733;SDS011;65660;53.288;14.666;2023-05-13T03:20:19;7.90;;;6.70;;
76733;SDS011;65660;53.288;14.666;2023-05-13T03:25:20;7.83;;;6.63;;
76733;SDS011;65660;53.288;14.666;2023-05-13T03:30:20;9.03;;;7.00;;
76733;SDS011;65660;53.288;14.666;2023-05-13T03:35:21;8.10;;;7.30;;
76733;SDS011;65660;53.288;14.666;2023-05-13T03:40:21;9.60;;;6.40;;
76733;SDS011;65660;53.288;14.666;2023-05-13T03:45:22;11.57;;;6.60;;
76733;SDS011;65660;53.288;14.666;2023-05-13T03:50:22;10.53;;;6.73;;
76733;SDS011;65660;53.288;14.666;2023-05-13T03:55:22;9.47;;;7.07;;
76733;SDS011;65660;53.288;14.666;2023-05-13T04:00:23;8.50;;;7.63;;
76733;SDS011;65660;53.288;14.666;2023-05-13T04:05:23;11.13;;;7.70;;
76733;SDS011;65660;53.288;14.666;2023-05-13T04:10:24;8.20;;;7.40;;
76733;SDS011;65660;53.288;14.666;2023-05-13T04:15:24;10.33;;;7.20;;
76733;SDS011;65660;53.288;14.666;2023-05-13T04:20:25;9.87;;;7.33;;
76733;SDS011;65660;53.288;14.666;2023-05-13T04:25:25;8.73;;;7.20;;
76733;SDS011;65660;53.288;14.666;2023-05-13T04:30:26;7.83;;;7.13;;
76733;SDS011;65660;53.288;14.666;2023-05-13T04:35:27;7.20;;;6.50;;
76733;SDS011;65660;53.288;14.666;2023-05-13T04:40:27;9.37;;;7.37;;
76733;SDS011;65660;53.288;14.666;2023-05-13T04:45:27;8.13;;;7.20;;
76733;SDS011;65660;53.288;14.666;2023-05-13T04:50:28;9.20;;;7.10;;
76733;SDS011;65660;53.288;14.666;2023-05-13T04:55:28;9.97;;;9.07;;
76733;SDS011;65660;53.288;14.666;2023-05-13T05:00:29;7.70;;;6.87;;
76733;SDS011;65660;53.288;14.666;2023-05-13T05:05:30;9.87;;;7.00;;
76733;SDS011;65660;53.288;14.666;2023-05-13T05:10:30;10.50;;;7.23;;
76733;SDS011;65660;53.288;14.666;2023-05-13T05:15:31;8.17;;;7.47;;
76733;SDS011;65660;53.288;14.666;2023-05-13T05:20:31;11.43;;;6.70;;
76733;SDS011;65660;53.288;14.666;2023-05-13T05:25:32;8.40;;;6.93;;
76733;SDS011;65660;53.288;14.666;2023-05-13T05:30:32;8.23;;;7.33;;
76733;SDS011;65660;53.288;14.666;2023-05-13T05:35:33;9.37;;;8.40;;
76733;SDS011;65660;53.288;14.666;2023-05-13T05:40:34;11.70;;;7.37;;
76733;SDS011;65660;53.288;14.666;2023-05-13T05:45:38;11.10;;;9.70;;
76733;SDS011;65660;53.288;14.666;2023-05-13T05:50:39;8.87;;;7.63;;
76733;SDS011;65660;53.288;14.666;2023-05-13T05:55:40;8.70;;;7.10;;
76733;SDS011;65660;53.288;14.666;2023-05-13T06:00:40;11.00;;;9.90;;
76733;SDS011;65660;53.288;14.666;2023-05-13T06:05:41;9.87;;;6.73;;
76733;SDS011;65660;53.288;14.666;2023-05-13T06:10:42;7.27;;;6.57;;
76733;SDS011;65660;53.288;14.666;2023-05-13T06:15:43;9.30;;;6.23;;
76733;SDS011;65660;53.288;14.666;2023-05-13T06:20:43;10.00;;;7.57;;
76733;SDS011;65660;53.288;14.666;2023-05-13T06:25:43;7.23;;;6.40;;
76733;SDS011;65660;53.288;14.666;2023-05-13T06:30:44;8.15;;;6.22;;
76733;SDS011;65660;53.288;14.666;2023-05-13T06:35:45;9.23;;;7.53;;
76733;SDS011;65660;53.288;14.666;2023-05-13T06:40:46;6.50;;;5.90;;
76733;SDS011;65660;53.288;14.666;2023-05-13T06:45:47;10.40;;;7.10;;
76733;SDS011;65660;53.288;14.666;2023-05-13T06:50:50;9.20;;;6.63;;
76733;SDS011;65660;53.288;14.666;2023-05-13T06:55:57;8.85;;;6.00;;
76733;SDS011;65660;53.288;14.666;2023-05-13T07:01:18;9.57;;;6.45;;
76733;SDS011;65660;53.288;14.666;2023-05-13T07:06:26;7.75;;;6.45;;
76733;SDS011;65660;53.288;14.666;2023-05-13T07:11:28;8.07;;;6.45;;
76733;SDS011;65660;53.288;14.666;2023-05-13T07:16:32;11.23;;;6.78;;
76733;SDS011;65660;53.288;14.666;2023-05-13T07:21:36;7.63;;;6.20;;
76733;SDS011;65660;53.288;14.666;2023-05-13T07:26:45;8.77;;;5.82;;
76733;SDS011;65660;53.288;14.666;2023-05-13T07:31:48;6.60;;;5.88;;
76733;SDS011;65660;53.288;14.666;2023-05-13T07:36:51;6.75;;;6.15;;
76733;SDS011;65660;53.288;14.666;2023-05-13T07:41:54;7.13;;;6.03;;
76733;SDS011;65660;53.288;14.666;2023-05-13T07:46:56;8.00;;;6.30;;
76733;SDS011;65660;53.288;14.666;2023-05-13T07:51:58;9.43;;;6.13;;
76733;SDS011;65660;53.288;14.666;2023-05-13T07:56:59;7.07;;;5.88;;
76733;SDS011;65660;53.288;14.666;2023-05-13T08:02:01;8.15;;;6.30;;
76733;SDS011;65660;53.288;14.666;2023-05-13T08:07:03;8.20;;;6.22;;
76733;SDS011;65660;53.288;14.666;2023-05-13T08:12:05;8.25;;;6.20;;
76733;SDS011;65660;53.288;14.666;2023-05-13T08:17:06;10.95;;;7.47;;
76733;SDS011;65660;53.288;14.666;2023-05-13T08:22:07;7.97;;;6.65;;
76733;SDS011;65660;53.288;14.666;2023-05-13T08:27:11;7.32;;;6.05;;
76733;SDS011;65660;53.288;14.666;2023-05-13T08:32:14;6.53;;;5.90;;
76733;SDS011;65660;53.288;14.666;2023-05-13T08:37:20;6.40;;;5.75;;
76733;SDS011;65660;53.288;14.666;2023-05-13T08:42:24;8.48;;;6.22;;
76733;SDS011;65660;53.288;14.666;2023-05-13T08:47:49;7.97;;;5.60;;
76733;SDS011;65660;53.288;14.666;2023-05-13T08:52:57;6.70;;;5.32;;
76733;SDS011;65660;53.288;14.666;2023-05-13T08:57:58;6.35;;;5.75;;
76733;SDS011;65660;53.288;14.666;2023-05-13T09:02:59;7.00;;;5.00;;
76733;SDS011;65660;53.288;14.666;2023-05-13T09:08:00;6.07;;;5.50;;
76733;SDS011;65660;53.288;14.666;2023-05-13T09:13:15;7.75;;;5.78;;
76733;SDS011;65660;53.288;14.666;2023-05-13T09:18:18;6.60;;;6.00;;
76733;SDS011;65660;53.288;14.666;2023-05-13T09:23:19;7.20;;;6.50;;
76733;SDS011;65660;53.288;14.666;2023-05-13T09:28:22;6.50;;;5.90;;
76733;SDS011;65660;53.288;14.666;2023-05-13T09:33:28;6.78;;;5.95;;
76733;SDS011;65660;53.288;14.666;2023-05-13T09:38:29;7.22;;;6.40;;
76733;SDS011;65660;53.288;14.666;2023-05-13T09:43:30;6.32;;;5.63;;
76733;SDS011;65660;53.288;14.666;2023-05-13T09:48:32;6.82;;;5.88;;
76733;SDS011;65660;53.288;14.666;2023-05-13T09:53:33;7.85;;;5.70;;
76733;SDS011;65660;53.288;14.666;2023-05-13T09:58:33;7.15;;;6.45;;
76733;SDS011;65660;53.288;14.666;2023-05-13T10:03:34;6.65;;;6.00;;
76733;SDS011;65660;53.288;14.666;2023-05-13T10:08:34;8.32;;;6.22;;
76733;SDS011;65660;53.288;14.666;2023-05-13T10:13:37;7.93;;;6.28;;
76733;SDS011;65660;53.288;14.666;2023-05-13T10:18:37;7.03;;;6.43;;
76733;SDS011;65660;53.288;14.666;2023-05-13T10:23:38;9.45;;;5.95;;
76733;SDS011;65660;53.288;14.666;2023-05-13T10:28:39;7.82;;;6.30;;
76733;SDS011;65660;53.288;14.666;2023-05-13T10:33:40;6.93;;;6.32;;
76733;SDS011;65660;53.288;14.666;2023-05-13T10:44:12;6.63;;;5.57;;
76733;SDS011;65660;53.288;14.666;2023-05-13T10:49:13;5.80;;;5.18;;
76733;SDS011;65660;53.288;14.666;2023-05-13T10:54:17;10.02;;;6.05;;
76733;SDS011;65660;53.288;14.666;2023-05-13T10:59:20;5.70;;;5.13;;
76733;SDS011;65660;53.288;14.666;2023-05-13T11:04:20;6.88;;;6.18;;
76733;SDS011;65660;53.288;14.666;2023-05-13T11:14:22;7.10;;;5.45;;
76733;SDS011;65660;53.288;14.666;2023-05-13T11:19:27;6.78;;;5.70;;
76733;SDS011;65660;53.288;14.666;2023-05-13T11:24:35;6.85;;;5.43;;
76733;SDS011;65660;53.288;14.666;2023-05-13T11:29:36;8.13;;;7.53;;
76733;SDS011;65660;53.288;14.666;2023-05-13T11:34:38;6.80;;;6.30;;
76733;SDS011;65660;53.288;14.666;2023-05-13T11:39:49;6.47;;;5.00;;
76733;SDS011;65660;53.288;14.666;2023-05-13T11:44:51;9.65;;;5.75;;
76733;SDS011;65660;53.288;14.666;2023-05-13T11:49:52;15.23;;;6.60;;
76733;SDS011;65660;53.288;14.666;2023-05-13T11:54:54;8.75;;;5.18;;
76733;SDS011;65660;53.288;14.666;2023-05-13T11:59:58;6.45;;;5.82;;
76733;SDS011;65660;53.288;14.666;2023-05-13T12:05:00;6.88;;;6.20;;
76733;SDS011;65660;53.288;14.666;2023-05-13T12:10:02;6.00;;;5.40;;
76733;SDS011;65660;53.288;14.666;2023-05-13T12:15:08;5.93;;;5.32;;
76733;SDS011;65660;53.288;14.666;2023-05-13T12:20:14;8.40;;;5.60;;
76733;SDS011;65660;53.288;14.666;2023-05-13T12:30:38;7.13;;;6.05;;
76733;SDS011;65660;53.288;14.666;2023-05-13T12:35:40;6.45;;;5.85;;
76733;SDS011;65660;53.288;14.666;2023-05-13T12:40:40;5.85;;;5.20;;
76733;SDS011;65660;53.288;14.666;2023-05-13T12:45:42;6.13;;;5.63;;
76733;SDS011;65660;53.288;14.666;2023-05-13T12:50:43;7.25;;;6.65;;
76733;SDS011;65660;53.288;14.666;2023-05-13T12:55:43;9.77;;;8.05;;
76733;SDS011;65660;53.288;14.666;2023-05-13T13:00:44;6.32;;;5.60;;
76733;SDS011;65660;53.288;14.666;2023-05-13T13:05:44;8.10;;;7.03;;
76733;SDS011;65660;53.288;14.666;2023-05-13T13:10:45;6.93;;;6.18;;
76733;SDS011;65660;53.288;14.666;2023-05-13T13:15:45;6.90;;;6.30;;
76733;SDS011;65660;53.288;14.666;2023-05-13T13:20:46;6.57;;;6.00;;
76733;SDS011;65660;53.288;14.666;2023-05-13T13:25:46;9.45;;;6.38;;
76733;SDS011;65660;53.288;14.666;2023-05-13T13:30:47;8.30;;;6.40;;
76733;SDS011;65660;53.288;14.666;2023-05-13T13:35:48;8.77;;;6.28;;
76733;SDS011;65660;53.288;14.666;2023-05-13T13:40:48;11.05;;;5.78;;
76733;SDS011;65660;53.288;14.666;2023-05-13T13:45:49;6.70;;;6.07;;
76733;SDS011;65660;53.288;14.666;2023-05-13T13:50:49;7.43;;;5.15;;
76733;SDS011;65660;53.288;14.666;2023-05-13T13:55:50;6.28;;;5.45;;
76733;SDS011;65660;53.288;14.666;2023-05-13T14:00:51;8.75;;;5.75;;
76733;SDS011;65660;53.288;14.666;2023-05-13T14:05:51;5.40;;;4.90;;
76733;SDS011;65660;53.288;14.666;2023-05-13T14:10:52;6.28;;;4.72;;
76733;SDS011;65660;53.288;14.666;2023-05-13T14:15:53;7.28;;;6.50;;
76733;SDS011;65660;53.288;14.666;2023-05-13T14:20:54;6.40;;;5.47;;
76733;SDS011;65660;53.288;14.666;2023-05-13T14:25:56;6.90;;;6.20;;
76733;SDS011;65660;53.288;14.666;2023-05-13T14:30:57;7.05;;;6.38;;
76733;SDS011;65660;53.288;14.666;2023-05-13T14:35:57;32.83;;;22.38;;
76733;SDS011;65660;53.288;14.666;2023-05-13T14:40:58;9.98;;;5.88;;
76733;SDS011;65660;53.288;14.666;2023-05-13T14:45:58;7.25;;;5.43;;
76733;SDS011;65660;53.288;14.666;2023-05-13T14:50:59;5.93;;;5.20;;
76733;SDS011;65660;53.288;14.666;2023-05-13T14:55:59;6.78;;;5.93;;
76733;SDS011;65660;53.288;14.666;2023-05-13T15:01:00;5.78;;;5.20;;
76733;SDS011;65660;53.288;14.666;2023-05-13T15:06:00;8.43;;;5.88;;
76733;SDS011;65660;53.288;14.666;2023-05-13T15:11:01;9.60;;;6.78;;
76733;SDS011;65660;53.288;14.666;2023-05-13T15:16:02;13.05;;;10.27;;
76733;SDS011;65660;53.288;14.666;2023-05-13T15:21:03;10.93;;;8.60;;
76733;SDS011;65660;53.288;14.666;2023-05-13T15:26:03;7.57;;;6.57;;
76733;SDS011;65660;53.288;14.666;2023-05-13T15:31:04;13.48;;;9.57;;
76733;SDS011;65660;53.288;14.666;2023-05-13T15:36:05;7.47;;;6.72;;
76733;SDS011;65660;53.288;14.666;2023-05-13T15:41:06;6.25;;;5.65;;
76733;SDS011;65660;53.288;14.666;2023-05-13T15:46:07;8.02;;;7.20;;
76733;SDS011;65660;53.288;14.666;2023-05-13T15:51:08;8.60;;;6.70;;
76733;SDS011;65660;53.288;14.666;2023-05-13T15:56:11;11.93;;;9.52;;
76733;SDS011;65660;53.288;14.666;2023-05-13T16:01:12;6.38;;;5.63;;
76733;SDS011;65660;53.288;14.666;2023-05-13T16:06:15;5.97;;;5.40;;
76733;SDS011;65660;53.288;14.666;2023-05-13T16:11:17;9.32;;;7.97;;
76733;SDS011;65660;53.288;14.666;2023-05-13T16:16:18;5.45;;;5.05;;
76733;SDS011;65660;53.288;14.666;2023-05-13T16:21:19;7.28;;;5.40;;
76733;SDS011;65660;53.288;14.666;2023-05-13T16:26:20;8.00;;;7.20;;
76733;SDS011;65660;53.288;14.666;2023-05-13T16:31:20;5.75;;;5.20;;
76733;SDS011;65660;53.288;14.666;2023-05-13T16:36:21;8.70;;;7.90;;
76733;SDS011;65660;53.288;14.666;2023-05-13T16:41:21;6.57;;;5.53;;
76733;SDS011;65660;53.288;14.666;2023-05-13T16:46:27;5.38;;;4.97;;
76733;SDS011;65660;53.288;14.666;2023-05-13T16:51:39;5.45;;;5.05;;
76733;SDS011;65660;53.288;14.666;2023-05-13T16:56:48;6.85;;;5.13;;
76733;SDS011;65660;53.288;14.666;2023-05-13T17:01:49;5.80;;;5.30;;
76733;SDS011;65660;53.288;14.666;2023-05-13T17:06:49;6.28;;;5.40;;
76733;SDS011;65660;53.288;14.666;2023-05-13T17:11:52;6.40;;;5.85;;
76733;SDS011;65660;53.288;14.666;2023-05-13T17:17:01;6.47;;;5.88;;
76733;SDS011;65660;53.288;14.666;2023-05-13T17:22:02;7.20;;;6.30;;
76733;SDS011;65660;53.288;14.666;2023-05-13T17:27:02;20.17;;;16.75;;
76733;SDS011;65660;53.288;14.666;2023-05-13T17:32:03;21.58;;;16.15;;
76733;SDS011;65660;53.288;14.666;2023-05-13T17:37:03;16.48;;;12.82;;
76733;SDS011;65660;53.288;14.666;2023-05-13T17:42:04;13.45;;;10.20;;
76733;SDS011;65660;53.288;14.666;2023-05-13T17:47:05;12.52;;;10.57;;
76733;SDS011;65660;53.288;14.666;2023-05-13T17:52:05;8.27;;;7.45;;
76733;SDS011;65660;53.288;14.666;2023-05-13T17:57:06;9.77;;;8.38;;
76733;SDS011;65660;53.288;14.666;2023-05-13T18:02:06;7.43;;;6.22;;
76733;SDS011;65660;53.288;14.666;2023-05-13T18:07:07;10.18;;;6.72;;
76733;SDS011;65660;53.288;14.666;2023-05-13T18:12:07;6.13;;;5.63;;
76733;SDS011;65660;53.288;14.666;2023-05-13T18:17:08;6.85;;;6.25;;
76733;SDS011;65660;53.288;14.666;2023-05-13T18:22:08;10.25;;;7.53;;
76733;SDS011;65660;53.288;14.666;2023-05-13T18:27:09;16.30;;;12.27;;
76733;SDS011;65660;53.288;14.666;2023-05-13T18:32:09;14.02;;;10.88;;
76733;SDS011;65660;53.288;14.666;2023-05-13T18:37:10;45.30;;;29.42;;
76733;SDS011;65660;53.288;14.666;2023-05-13T18:42:11;36.63;;;21.88;;
76733;SDS011;65660;53.288;14.666;2023-05-13T18:47:11;21.88;;;15.35;;
76733;SDS011;65660;53.288;14.666;2023-05-13T18:52:12;20.55;;;14.38;;
76733;SDS011;65660;53.288;14.666;2023-05-13T18:57:12;21.00;;;14.90;;
76733;SDS011;65660;53.288;14.666;2023-05-13T19:02:14;17.15;;;11.20;;
76733;SDS011;65660;53.288;14.666;2023-05-13T19:07:14;14.88;;;12.45;;
76733;SDS011;65660;53.288;14.666;2023-05-13T19:12:15;17.67;;;11.88;;
76733;SDS011;65660;53.288;14.666;2023-05-13T19:17:16;13.48;;;10.57;;
76733;SDS011;65660;53.288;14.666;2023-05-13T19:22:17;10.48;;;9.38;;
76733;SDS011;65660;53.288;14.666;2023-05-13T19:27:17;10.30;;;9.20;;
76733;SDS011;65660;53.288;14.666;2023-05-13T19:32:18;9.25;;;7.90;;
76733;SDS011;65660;53.288;14.666;2023-05-13T19:37:18;11.57;;;7.60;;
76733;SDS011;65660;53.288;14.666;2023-05-13T19:42:18;11.80;;;8.80;;
76733;SDS011;65660;53.288;14.666;2023-05-13T19:47:19;8.02;;;7.00;;
76733;SDS011;65660;53.288;14.666;2023-05-13T19:52:19;7.55;;;6.03;;
76733;SDS011;65660;53.288;14.666;2023-05-13T19:57:20;6.57;;;5.97;;
76733;SDS011;65660;53.288;14.666;2023-05-13T20:02:20;8.70;;;7.13;;
76733;SDS011;65660;53.288;14.666;2023-05-13T20:07:21;8.02;;;7.15;;
76733;SDS011;65660;53.288;14.666;2023-05-13T20:12:22;7.70;;;7.00;;
76733;SDS011;65660;53.288;14.666;2023-05-13T20:17:24;8.43;;;7.63;;
76733;SDS011;65660;53.288;14.666;2023-05-13T20:22:30;7.80;;;7.00;;
76733;SDS011;65660;53.288;14.666;2023-05-13T20:27:33;7.00;;;6.30;;
76733;SDS011;65660;53.288;14.666;2023-05-13T20:32:34;8.95;;;6.60;;
76733;SDS011;65660;53.288;14.666;2023-05-13T20:37:35;7.38;;;5.97;;
76733;SDS011;65660;53.288;14.666;2023-05-13T20:42:39;7.40;;;6.70;;
76733;SDS011;65660;53.288;14.666;2023-05-13T20:47:42;10.45;;;7.50;;
76733;SDS011;65660;53.288;14.666;2023-05-13T20:52:43;11.10;;;10.10;;
76733;SDS011;65660;53.288;14.666;2023-05-13T20:57:43;10.63;;;9.52;;
76733;SDS011;65660;53.288;14.666;2023-05-13T21:02:44;8.90;;;8.00;;
76733;SDS011;65660;53.288;14.666;2023-05-13T21:07:45;10.88;;;8.18;;
76733;SDS011;65660;53.288;14.666;2023-05-13T21:12:46;7.32;;;6.63;;
76733;SDS011;65660;53.288;14.666;2023-05-13T21:17:47;7.70;;;7.00;;
76733;SDS011;65660;53.288;14.666;2023-05-13T21:22:48;8.67;;;7.40;;
76733;SDS011;65660;53.288;14.666;2023-05-13T21:27:49;9.10;;;8.20;;
76733;SDS011;65660;53.288;14.666;2023-05-13T21:32:50;11.30;;;8.77;;
76733;SDS011;65660;53.288;14.666;2023-05-13T21:37:50;8.80;;;7.70;;
76733;SDS011;65660;53.288;14.666;2023-05-13T21:42:51;8.40;;;7.60;;
76733;SDS011;65660;53.288;14.666;2023-05-13T21:47:51;10.77;;;7.70;;
76733;SDS011;65660;53.288;14.666;2023-05-13T21:52:52;11.43;;;7.60;;
76733;SDS011;65660;53.288;14.666;2023-05-13T21:57:53;9.13;;;8.07;;
76733;SDS011;65660;53.288;14.666;2023-05-13T22:02:53;8.77;;;7.00;;
76733;SDS011;65660;53.288;14.666;2023-05-13T22:07:54;11.30;;;7.20;;
76733;SDS011;65660;53.288;14.666;2023-05-13T22:12:54;8.07;;;7.20;;
76733;SDS011;65660;53.288;14.666;2023-05-13T22:17:55;8.73;;;7.47;;
76733;SDS011;65660;53.288;14.666;2023-05-13T22:22:55;9.73;;;7.50;;
76733;SDS011;65660;53.288;14.666;2023-05-13T22:27:55;11.87;;;8.30;;
76733;SDS011;65660;53.288;14.666;2023-05-13T22:32:56;12.30;;;7.60;;
76733;SDS011;65660;53.288;14.666;2023-05-13T22:37:56;10.30;;;7.30;;
76733;SDS011;65660;53.288;14.666;2023-05-13T22:42:57;9.90;;;7.63;;
76733;SDS011;65660;53.288;14.666;2023-05-13T22:47:58;8.77;;;6.90;;
76733;SDS011;65660;53.288;14.666;2023-05-13T22:52:58;9.87;;;7.53;;
76733;SDS011;65660;53.288;14.666;2023-05-13T22:57:59;8.33;;;6.87;;
76733;SDS011;65660;53.288;14.666;2023-05-13T23:03:00;8.97;;;7.00;;
76733;SDS011;65660;53.288;14.666;2023-05-13T23:08:00;8.50;;;7.60;;
76733;SDS011;65660;53.288;14.666;2023-05-13T23:13:01;10.83;;;7.50;;
76733;SDS011;65660;53.288;14.666;2023-05-13T23:18:01;9.00;;;6.80;;
76733;SDS011;65660;53.288;14.666;2023-05-13T23:23:02;8.43;;;7.23;;
76733;SDS011;65660;53.288;14.666;2023-05-13T23:28:02;8.33;;;7.53;;
76733;SDS011;65660;53.288;14.666;2023-05-13T23:33:03;8.73;;;7.00;;
76733;SDS011;65660;53.288;14.666;2023-05-13T23:38:03;8.83;;;7.30;;
76733;SDS011;65660;53.288;14.666;2023-05-13T23:43:03;9.97;;;7.67;;
76733;SDS011;65660;53.288;14.666;2023-05-13T23:48:04;11.43;;;7.50;;
76733;SDS011;65660;53.288;14.666;2023-05-13T23:53:05;9.63;;;8.43;;
76733;SDS011;65660;53.288;14.666;2023-05-13T23:58:05;10.13;;;8.20;;
